sensor_id;sensor_type;location;lat;lon;timestamp;temperature;humidity
39951;DHT22;25629;51.444;-2.606;2023-04-24T00:01:17;8.40;94.50
39951;DHT22;25629;51.444;-2.606;2023-04-24T00:03:44;8.40;93.60
39951;DHT22;25629;51.444;-2.606;2023-04-24T00:06:10;8.40;93.40
39951;DHT22;25629;51.444;-2.606;2023-04-24T00:08:35;8.30;94.40
39951;DHT22;25629;51.444;-2.606;2023-04-24T00:11:01;8.30;95.30
39951;DHT22;25629;51.444;-2.606;2023-04-24T00:13:27;8.30;95.60
39951;DHT22;25629;51.444;-2.606;2023-04-24T00:15:54;8.30;95.50
39951;DHT22;25629;51.444;-2.606;2023-04-24T00:18:19;8.30;95.60
39951;DHT22;25629;51.444;-2.606;2023-04-24T00:20:45;8.30;94.40
39951;DHT22;25629;51.444;-2.606;2023-04-24T00:23:12;8.30;94.90
39951;DHT22;25629;51.444;-2.606;2023-04-24T00:25:38;8.20;95.80
39951;DHT22;25629;51.444;-2.606;2023-04-24T00:28:03;8.20;96.30
39951;DHT22;25629;51.444;-2.606;2023-04-24T00:30:29;8.20;96.00
39951;DHT22;25629;51.444;-2.606;2023-04-24T00:32:55;8.10;96.10
39951;DHT22;25629;51.444;-2.606;2023-04-24T00:35:20;8.10;96.40
39951;DHT22;25629;51.444;-2.606;2023-04-24T00:37:46;8.00;98.30
39951;DHT22;25629;51.444;-2.606;2023-04-24T00:40:11;8.00;98.40
39951;DHT22;25629;51.444;-2.606;2023-04-24T00:42:37;8.00;98.70
39951;DHT22;25629;51.444;-2.606;2023-04-24T00:45:03;8.00;99.10
39951;DHT22;25629;51.444;-2.606;2023-04-24T00:47:29;7.90;99.70
39951;DHT22;25629;51.444;-2.606;2023-04-24T00:49:55;7.90;99.90
39951;DHT22;25629;51.444;-2.606;2023-04-24T00:52:20;8.00;99.70
39951;DHT22;25629;51.444;-2.606;2023-04-24T00:54:49;8.00;99.40
39951;DHT22;25629;51.444;-2.606;2023-04-24T00:57:15;8.00;99.10
39951;DHT22;25629;51.444;-2.606;2023-04-24T00:59:41;8.00;98.60
39951;DHT22;25629;51.444;-2.606;2023-04-24T01:02:07;8.00;98.00
39951;DHT22;25629;51.444;-2.606;2023-04-24T01:04:34;8.00;97.90
39951;DHT22;25629;51.444;-2.606;2023-04-24T01:06:59;8.00;97.90
39951;DHT22;25629;51.444;-2.606;2023-04-24T01:09:26;8.00;97.60
39951;DHT22;25629;51.444;-2.606;2023-04-24T01:11:51;8.00;96.20
39951;DHT22;25629;51.444;-2.606;2023-04-24T01:14:17;8.10;93.70
39951;DHT22;25629;51.444;-2.606;2023-04-24T01:16:43;8.10;92.20
39951;DHT22;25629;51.444;-2.606;2023-04-24T01:19:08;8.20;90.70
39951;DHT22;25629;51.444;-2.606;2023-04-24T01:21:36;8.30;85.90
39951;DHT22;25629;51.444;-2.606;2023-04-24T01:24:02;8.40;79.10
39951;DHT22;25629;51.444;-2.606;2023-04-24T01:26:27;8.40;72.10
39951;DHT22;25629;51.444;-2.606;2023-04-24T01:28:53;8.40;67.40
39951;DHT22;25629;51.444;-2.606;2023-04-24T01:31:19;8.40;62.60
39951;DHT22;25629;51.444;-2.606;2023-04-24T01:33:45;8.40;60.60
39951;DHT22;25629;51.444;-2.606;2023-04-24T01:36:11;8.50;60.60
39951;DHT22;25629;51.444;-2.606;2023-04-24T01:38:37;8.50;58.20
39951;DHT22;25629;51.444;-2.606;2023-04-24T01:41:02;8.40;59.10
39951;DHT22;25629;51.444;-2.606;2023-04-24T01:43:28;8.40;62.30
39951;DHT22;25629;51.444;-2.606;2023-04-24T01:45:54;8.30;72.80
39951;DHT22;25629;51.444;-2.606;2023-04-24T01:48:19;8.30;76.60
39951;DHT22;25629;51.444;-2.606;2023-04-24T01:50:45;8.10;82.00
39951;DHT22;25629;51.444;-2.606;2023-04-24T01:53:11;8.10;90.50
39951;DHT22;25629;51.444;-2.606;2023-04-24T01:55:36;8.10;92.10
39951;DHT22;25629;51.444;-2.606;2023-04-24T01:58:02;8.00;93.40
39951;DHT22;25629;51.444;-2.606;2023-04-24T02:00:28;8.00;95.40
39951;DHT22;25629;51.444;-2.606;2023-04-24T02:02:53;8.00;96.70
39951;DHT22;25629;51.444;-2.606;2023-04-24T02:05:19;7.90;97.20
39951;DHT22;25629;51.444;-2.606;2023-04-24T02:07:45;7.90;98.10
39951;DHT22;25629;51.444;-2.606;2023-04-24T02:10:10;7.90;98.90
39951;DHT22;25629;51.444;-2.606;2023-04-24T02:12:36;7.90;99.10
39951;DHT22;25629;51.444;-2.606;2023-04-24T02:15:02;7.90;98.90
39951;DHT22;25629;51.444;-2.606;2023-04-24T02:17:28;7.80;99.50
39951;DHT22;25629;51.444;-2.606;2023-04-24T02:19:53;7.80;99.80
39951;DHT22;25629;51.444;-2.606;2023-04-24T02:22:19;7.80;99.90
39951;DHT22;25629;51.444;-2.606;2023-04-24T02:24:44;7.80;99.90
39951;DHT22;25629;51.444;-2.606;2023-04-24T02:27:10;7.80;99.90
39951;DHT22;25629;51.444;-2.606;2023-04-24T02:29:36;7.80;99.90
39951;DHT22;25629;51.444;-2.606;2023-04-24T02:32:02;7.80;99.90
39951;DHT22;25629;51.444;-2.606;2023-04-24T02:34:27;7.80;99.90
39951;DHT22;25629;51.444;-2.606;2023-04-24T02:36:53;7.80;99.90
39951;DHT22;25629;51.444;-2.606;2023-04-24T02:39:21;7.70;99.90
39951;DHT22;25629;51.444;-2.606;2023-04-24T02:41:47;7.70;99.90
39951;DHT22;25629;51.444;-2.606;2023-04-24T02:44:12;7.80;99.90
39951;DHT22;25629;51.444;-2.606;2023-04-24T02:46:38;7.80;99.90
39951;DHT22;25629;51.444;-2.606;2023-04-24T02:49:04;7.80;99.90
39951;DHT22;25629;51.444;-2.606;2023-04-24T02:51:29;7.80;99.90
39951;DHT22;25629;51.444;-2.606;2023-04-24T02:53:56;7.90;99.90
39951;DHT22;25629;51.444;-2.606;2023-04-24T02:56:22;7.90;99.40
39951;DHT22;25629;51.444;-2.606;2023-04-24T02:58:48;7.90;98.90
39951;DHT22;25629;51.444;-2.606;2023-04-24T03:01:13;7.90;98.90
39951;DHT22;25629;51.444;-2.606;2023-04-24T03:03:39;8.00;98.40
39951;DHT22;25629;51.444;-2.606;2023-04-24T03:06:04;8.00;98.50
39951;DHT22;25629;51.444;-2.606;2023-04-24T03:08:33;8.00;98.00
39951;DHT22;25629;51.444;-2.606;2023-04-24T03:10:59;8.10;98.50
39951;DHT22;25629;51.444;-2.606;2023-04-24T03:13:25;8.10;98.40
39951;DHT22;25629;51.444;-2.606;2023-04-24T03:15:50;8.10;98.40
39951;DHT22;25629;51.444;-2.606;2023-04-24T03:18:17;8.10;97.40
39951;DHT22;25629;51.444;-2.606;2023-04-24T03:20:42;8.10;97.40
39951;DHT22;25629;51.444;-2.606;2023-04-24T03:23:10;8.10;97.40
39951;DHT22;25629;51.444;-2.606;2023-04-24T03:25:36;8.10;97.80
39951;DHT22;25629;51.444;-2.606;2023-04-24T03:28:01;8.20;97.00
39951;DHT22;25629;51.444;-2.606;2023-04-24T03:30:27;8.20;96.40
39951;DHT22;25629;51.444;-2.606;2023-04-24T03:32:52;8.30;96.30
39951;DHT22;25629;51.444;-2.606;2023-04-24T03:35:18;8.30;93.40
39951;DHT22;25629;51.444;-2.606;2023-04-24T03:37:44;8.30;91.90
39951;DHT22;25629;51.444;-2.606;2023-04-24T03:40:09;8.40;91.50
39951;DHT22;25629;51.444;-2.606;2023-04-24T03:42:35;8.40;90.40
39951;DHT22;25629;51.444;-2.606;2023-04-24T03:45:00;8.40;86.80
39951;DHT22;25629;51.444;-2.606;2023-04-24T03:47:26;8.40;84.30
39951;DHT22;25629;51.444;-2.606;2023-04-24T03:49:51;8.40;81.40
39951;DHT22;25629;51.444;-2.606;2023-04-24T03:52:17;8.40;78.60
39951;DHT22;25629;51.444;-2.606;2023-04-24T03:54:43;8.40;79.30
39951;DHT22;25629;51.444;-2.606;2023-04-24T03:57:08;8.40;78.70
39951;DHT22;25629;51.444;-2.606;2023-04-24T03:59:34;8.40;79.70
39951;DHT22;25629;51.444;-2.606;2023-04-24T04:01:59;8.40;78.10
39951;DHT22;25629;51.444;-2.606;2023-04-24T04:04:25;8.40;77.40
39951;DHT22;25629;51.444;-2.606;2023-04-24T04:06:50;8.50;75.20
39951;DHT22;25629;51.444;-2.606;2023-04-24T04:09:17;8.50;72.60
39951;DHT22;25629;51.444;-2.606;2023-04-24T04:11:42;8.50;72.40
39951;DHT22;25629;51.444;-2.606;2023-04-24T04:14:08;8.60;69.80
39951;DHT22;25629;51.444;-2.606;2023-04-24T04:16:33;8.50;69.60
39951;DHT22;25629;51.444;-2.606;2023-04-24T04:19:01;8.50;71.10
39951;DHT22;25629;51.444;-2.606;2023-04-24T04:21:28;8.50;69.10
39951;DHT22;25629;51.444;-2.606;2023-04-24T04:23:53;8.50;71.10
39951;DHT22;25629;51.444;-2.606;2023-04-24T04:26:19;8.40;70.50
39951;DHT22;25629;51.444;-2.606;2023-04-24T04:28:46;8.40;70.80
39951;DHT22;25629;51.444;-2.606;2023-04-24T04:31:13;8.30;73.20
39951;DHT22;25629;51.444;-2.606;2023-04-24T04:33:38;8.30;78.70
39951;DHT22;25629;51.444;-2.606;2023-04-24T04:36:04;8.30;77.90
39951;DHT22;25629;51.444;-2.606;2023-04-24T04:38:30;8.20;79.70
39951;DHT22;25629;51.444;-2.606;2023-04-24T04:40:56;8.20;79.60
39951;DHT22;25629;51.444;-2.606;2023-04-24T04:43:22;8.10;81.00
39951;DHT22;25629;51.444;-2.606;2023-04-24T04:45:49;8.10;81.50
39951;DHT22;25629;51.444;-2.606;2023-04-24T04:48:16;8.00;78.40
39951;DHT22;25629;51.444;-2.606;2023-04-24T04:50:43;8.00;80.60
39951;DHT22;25629;51.444;-2.606;2023-04-24T04:53:08;7.90;84.90
39951;DHT22;25629;51.444;-2.606;2023-04-24T04:55:34;7.80;88.70
39951;DHT22;25629;51.444;-2.606;2023-04-24T04:58:00;7.70;88.80
39951;DHT22;25629;51.444;-2.606;2023-04-24T05:00:26;7.60;91.50
39951;DHT22;25629;51.444;-2.606;2023-04-24T05:02:52;7.60;95.20
39951;DHT22;25629;51.444;-2.606;2023-04-24T05:05:18;7.60;96.30
39951;DHT22;25629;51.444;-2.606;2023-04-24T05:07:43;7.50;98.60
39951;DHT22;25629;51.444;-2.606;2023-04-24T05:10:09;7.50;99.90
39951;DHT22;25629;51.444;-2.606;2023-04-24T05:12:35;7.50;99.90
39951;DHT22;25629;51.444;-2.606;2023-04-24T05:15:01;7.50;99.90
39951;DHT22;25629;51.444;-2.606;2023-04-24T05:17:27;7.40;99.90
39951;DHT22;25629;51.444;-2.606;2023-04-24T05:19:52;7.40;99.90
39951;DHT22;25629;51.444;-2.606;2023-04-24T05:22:18;7.40;99.90
39951;DHT22;25629;51.444;-2.606;2023-04-24T05:24:46;7.50;99.90
39951;DHT22;25629;51.444;-2.606;2023-04-24T05:27:12;7.50;99.90
39951;DHT22;25629;51.444;-2.606;2023-04-24T05:29:37;7.60;99.90
39951;DHT22;25629;51.444;-2.606;2023-04-24T05:32:03;7.70;99.90
39951;DHT22;25629;51.444;-2.606;2023-04-24T05:34:28;7.80;99.90
39951;DHT22;25629;51.444;-2.606;2023-04-24T05:36:54;7.80;99.90
39951;DHT22;25629;51.444;-2.606;2023-04-24T05:39:20;7.90;99.90
39951;DHT22;25629;51.444;-2.606;2023-04-24T05:41:45;7.90;99.60
39951;DHT22;25629;51.444;-2.606;2023-04-24T05:44:11;8.10;99.00
39951;DHT22;25629;51.444;-2.606;2023-04-24T05:46:36;8.10;98.40
39951;DHT22;25629;51.444;-2.606;2023-04-24T05:49:02;8.20;96.20
39951;DHT22;25629;51.444;-2.606;2023-04-24T05:51:28;8.40;95.30
39951;DHT22;25629;51.444;-2.606;2023-04-24T05:53:53;8.50;94.10
39951;DHT22;25629;51.444;-2.606;2023-04-24T05:56:19;8.60;91.60
39951;DHT22;25629;51.444;-2.606;2023-04-24T05:58:45;8.80;85.60
39951;DHT22;25629;51.444;-2.606;2023-04-24T06:01:11;9.00;79.50
39951;DHT22;25629;51.444;-2.606;2023-04-24T06:03:37;9.20;77.00
39951;DHT22;25629;51.444;-2.606;2023-04-24T06:06:03;9.30;71.30
39951;DHT22;25629;51.444;-2.606;2023-04-24T06:08:29;9.50;64.40
39951;DHT22;25629;51.444;-2.606;2023-04-24T06:10:54;9.60;60.90
39951;DHT22;25629;51.444;-2.606;2023-04-24T06:13:20;9.80;55.10
39951;DHT22;25629;51.444;-2.606;2023-04-24T06:15:45;9.80;52.80
39951;DHT22;25629;51.444;-2.606;2023-04-24T06:18:11;9.80;35.60
39951;DHT22;25629;51.444;-2.606;2023-04-24T06:20:37;9.90;26.90
39951;DHT22;25629;51.444;-2.606;2023-04-24T06:23:03;9.90;22.90
39951;DHT22;25629;51.444;-2.606;2023-04-24T06:25:29;9.90;19.20
39951;DHT22;25629;51.444;-2.606;2023-04-24T06:27:55;9.90;14.20
39951;DHT22;25629;51.444;-2.606;2023-04-24T06:30:21;9.90;14.60
39951;DHT22;25629;51.444;-2.606;2023-04-24T06:32:46;9.90;12.60
39951;DHT22;25629;51.444;-2.606;2023-04-24T06:35:12;9.90;4.70
39951;DHT22;25629;51.444;-2.606;2023-04-24T06:37:41;10.00;8.80
39951;DHT22;25629;51.444;-2.606;2023-04-24T06:40:07;10.10;4.70
39951;DHT22;25629;51.444;-2.606;2023-04-24T06:42:32;10.10;7.80
39951;DHT22;25629;51.444;-2.606;2023-04-24T06:44:58;10.10;11.50
39951;DHT22;25629;51.444;-2.606;2023-04-24T06:47:23;10.20;11.30
39951;DHT22;25629;51.444;-2.606;2023-04-24T06:49:49;10.20;10.30
39951;DHT22;25629;51.444;-2.606;2023-04-24T06:52:16;10.20;14.20
39951;DHT22;25629;51.444;-2.606;2023-04-24T06:54:41;10.20;18.90
39951;DHT22;25629;51.444;-2.606;2023-04-24T06:57:08;10.20;20.80
39951;DHT22;25629;51.444;-2.606;2023-04-24T06:59:33;10.30;18.40
39951;DHT22;25629;51.444;-2.606;2023-04-24T07:01:59;10.40;6.10
39951;DHT22;25629;51.444;-2.606;2023-04-24T07:04:25;10.40;13.50
39951;DHT22;25629;51.444;-2.606;2023-04-24T07:06:50;10.50;10.00
39951;DHT22;25629;51.444;-2.606;2023-04-24T07:09:16;10.60;1.00
39951;DHT22;25629;51.444;-2.606;2023-04-24T07:11:44;10.60;1.00
39951;DHT22;25629;51.444;-2.606;2023-04-24T07:14:09;10.70;1.00
39951;DHT22;25629;51.444;-2.606;2023-04-24T07:16:35;10.70;1.00
39951;DHT22;25629;51.444;-2.606;2023-04-24T07:19:01;10.80;1.00
39951;DHT22;25629;51.444;-2.606;2023-04-24T07:21:26;10.80;1.00
39951;DHT22;25629;51.444;-2.606;2023-04-24T07:23:52;10.80;1.00
39951;DHT22;25629;51.444;-2.606;2023-04-24T07:26:18;11.00;1.00
39951;DHT22;25629;51.444;-2.606;2023-04-24T07:28:43;11.10;1.00
39951;DHT22;25629;51.444;-2.606;2023-04-24T07:31:10;11.10;1.00
39951;DHT22;25629;51.444;-2.606;2023-04-24T07:33:36;11.20;1.00
39951;DHT22;25629;51.444;-2.606;2023-04-24T07:36:01;11.40;99.90
39951;DHT22;25629;51.444;-2.606;2023-04-24T07:38:29;11.50;99.90
39951;DHT22;25629;51.444;-2.606;2023-04-24T07:40:54;11.70;99.90
39951;DHT22;25629;51.444;-2.606;2023-04-24T07:43:20;11.80;1.00
39951;DHT22;25629;51.444;-2.606;2023-04-24T07:45:46;12.20;1.00
39951;DHT22;25629;51.444;-2.606;2023-04-24T07:48:12;12.40;99.90
39951;DHT22;25629;51.444;-2.606;2023-04-24T07:50:41;12.70;1.00
39951;DHT22;25629;51.444;-2.606;2023-04-24T07:53:07;13.00;1.00
39951;DHT22;25629;51.444;-2.606;2023-04-24T07:55:32;12.80;1.00
39951;DHT22;25629;51.444;-2.606;2023-04-24T07:57:58;12.70;99.90
39951;DHT22;25629;51.444;-2.606;2023-04-24T08:00:24;12.70;1.00
39951;DHT22;25629;51.444;-2.606;2023-04-24T08:02:49;12.70;1.00
39951;DHT22;25629;51.444;-2.606;2023-04-24T08:05:15;12.50;99.90
39951;DHT22;25629;51.444;-2.606;2023-04-24T08:07:40;12.40;1.00
39951;DHT22;25629;51.444;-2.606;2023-04-24T08:10:09;12.20;99.90
39951;DHT22;25629;51.444;-2.606;2023-04-24T08:12:35;12.20;1.00
39951;DHT22;25629;51.444;-2.606;2023-04-24T08:15:00;12.20;1.00
39951;DHT22;25629;51.444;-2.606;2023-04-24T08:17:26;12.20;99.90
39951;DHT22;25629;51.444;-2.606;2023-04-24T08:19:51;12.10;93.30
39951;DHT22;25629;51.444;-2.606;2023-04-24T08:22:18;12.00;99.90
39951;DHT22;25629;51.444;-2.606;2023-04-24T08:24:44;11.80;1.00
39951;DHT22;25629;51.444;-2.606;2023-04-24T08:27:10;11.70;99.90
39951;DHT22;25629;51.444;-2.606;2023-04-24T08:29:36;11.50;99.90
39951;DHT22;25629;51.444;-2.606;2023-04-24T08:32:01;11.20;99.90
39951;DHT22;25629;51.444;-2.606;2023-04-24T08:34:27;11.00;1.00
39951;DHT22;25629;51.444;-2.606;2023-04-24T08:36:53;10.80;1.00
39951;DHT22;25629;51.444;-2.606;2023-04-24T08:39:18;10.70;27.50
39951;DHT22;25629;51.444;-2.606;2023-04-24T08:41:44;10.80;48.40
39951;DHT22;25629;51.444;-2.606;2023-04-24T08:44:10;10.70;18.70
39951;DHT22;25629;51.444;-2.606;2023-04-24T08:46:36;10.70;54.20
39951;DHT22;25629;51.444;-2.606;2023-04-24T08:49:02;10.60;67.10
39951;DHT22;25629;51.444;-2.606;2023-04-24T08:51:28;10.60;62.70
39951;DHT22;25629;51.444;-2.606;2023-04-24T08:53:55;10.60;61.90
39951;DHT22;25629;51.444;-2.606;2023-04-24T08:56:22;10.60;62.50
39951;DHT22;25629;51.444;-2.606;2023-04-24T08:58:51;10.60;76.80
39951;DHT22;25629;51.444;-2.606;2023-04-24T09:01:18;10.60;70.30
39951;DHT22;25629;51.444;-2.606;2023-04-24T09:03:45;10.50;43.50
39951;DHT22;25629;51.444;-2.606;2023-04-24T09:06:11;10.50;49.50
39951;DHT22;25629;51.444;-2.606;2023-04-24T09:08:36;10.50;56.20
39951;DHT22;25629;51.444;-2.606;2023-04-24T09:11:04;10.50;65.90
39951;DHT22;25629;51.444;-2.606;2023-04-24T09:13:30;10.50;76.30
39951;DHT22;25629;51.444;-2.606;2023-04-24T09:15:55;10.50;80.00
39951;DHT22;25629;51.444;-2.606;2023-04-24T09:18:22;10.50;69.80
39951;DHT22;25629;51.444;-2.606;2023-04-24T09:21:01;10.50;73.90
39951;DHT22;25629;51.444;-2.606;2023-04-24T09:23:30;10.40;82.30
39951;DHT22;25629;51.444;-2.606;2023-04-24T09:25:57;10.40;84.70
39951;DHT22;25629;51.444;-2.606;2023-04-24T09:28:41;10.40;79.90
39951;DHT22;25629;51.444;-2.606;2023-04-24T09:31:11;10.40;80.40
39951;DHT22;25629;51.444;-2.606;2023-04-24T09:33:37;10.30;84.30
39951;DHT22;25629;51.444;-2.606;2023-04-24T09:36:03;10.30;85.30
39951;DHT22;25629;51.444;-2.606;2023-04-24T09:38:38;10.30;91.10
39951;DHT22;25629;51.444;-2.606;2023-04-24T09:41:07;10.10;96.70
39951;DHT22;25629;51.444;-2.606;2023-04-24T09:43:34;9.90;99.90
39951;DHT22;25629;51.444;-2.606;2023-04-24T09:46:04;9.70;99.90
39951;DHT22;25629;51.444;-2.606;2023-04-24T09:48:33;9.50;99.90
39951;DHT22;25629;51.444;-2.606;2023-04-24T09:51:00;9.30;99.90
39951;DHT22;25629;51.444;-2.606;2023-04-24T09:53:27;9.20;99.90
39951;DHT22;25629;51.444;-2.606;2023-04-24T09:55:52;9.10;99.90
39951;DHT22;25629;51.444;-2.606;2023-04-24T09:58:18;9.00;99.90
39951;DHT22;25629;51.444;-2.606;2023-04-24T10:00:49;9.00;99.90
39951;DHT22;25629;51.444;-2.606;2023-04-24T10:03:18;9.00;99.90
39951;DHT22;25629;51.444;-2.606;2023-04-24T10:05:44;9.10;99.90
39951;DHT22;25629;51.444;-2.606;2023-04-24T10:08:11;9.20;99.90
39951;DHT22;25629;51.444;-2.606;2023-04-24T10:10:42;9.30;99.90
39951;DHT22;25629;51.444;-2.606;2023-04-24T10:13:11;9.20;99.90
39951;DHT22;25629;51.444;-2.606;2023-04-24T10:15:38;9.30;99.90
39951;DHT22;25629;51.444;-2.606;2023-04-24T10:18:04;9.50;99.90
39951;DHT22;25629;51.444;-2.606;2023-04-24T10:20:32;9.60;99.90
39951;DHT22;25629;51.444;-2.606;2023-04-24T10:22:57;9.90;99.90
39951;DHT22;25629;51.444;-2.606;2023-04-24T10:25:24;10.10;99.90
39951;DHT22;25629;51.444;-2.606;2023-04-24T10:27:50;10.10;99.90
39951;DHT22;25629;51.444;-2.606;2023-04-24T10:30:17;10.10;99.90
39951;DHT22;25629;51.444;-2.606;2023-04-24T10:32:43;10.10;99.90
39951;DHT22;25629;51.444;-2.606;2023-04-24T10:35:09;10.00;99.90
39951;DHT22;25629;51.444;-2.606;2023-04-24T10:37:39;10.00;99.90
39951;DHT22;25629;51.444;-2.606;2023-04-24T10:40:06;9.90;99.90
39951;DHT22;25629;51.444;-2.606;2023-04-24T10:42:33;9.80;99.90
39951;DHT22;25629;51.444;-2.606;2023-04-24T10:44:59;9.70;99.90
39951;DHT22;25629;51.444;-2.606;2023-04-24T10:47:27;9.50;99.90
39951;DHT22;25629;51.444;-2.606;2023-04-24T10:49:52;9.50;99.90
39951;DHT22;25629;51.444;-2.606;2023-04-24T10:52:18;9.50;99.90
39951;DHT22;25629;51.444;-2.606;2023-04-24T10:54:44;9.50;99.90
39951;DHT22;25629;51.444;-2.606;2023-04-24T10:59:46;9.50;99.90
39951;DHT22;25629;51.444;-2.606;2023-04-24T11:02:15;9.50;99.90
39951;DHT22;25629;51.444;-2.606;2023-04-24T11:04:42;9.60;99.90
39951;DHT22;25629;51.444;-2.606;2023-04-24T11:07:11;9.80;99.90
39951;DHT22;25629;51.444;-2.606;2023-04-24T11:09:37;9.90;99.90
39951;DHT22;25629;51.444;-2.606;2023-04-24T11:12:09;9.90;99.90
39951;DHT22;25629;51.444;-2.606;2023-04-24T11:20:00;9.70;99.90
39951;DHT22;25629;51.444;-2.606;2023-04-24T11:22:25;9.50;99.90
39951;DHT22;25629;51.444;-2.606;2023-04-24T11:24:53;9.40;99.90
39951;DHT22;25629;51.444;-2.606;2023-04-24T11:27:19;9.50;99.90
39951;DHT22;25629;51.444;-2.606;2023-04-24T11:29:49;9.60;99.90
39951;DHT22;25629;51.444;-2.606;2023-04-24T11:34:47;10.00;99.90
39951;DHT22;25629;51.444;-2.606;2023-04-24T11:37:13;10.10;99.90
39951;DHT22;25629;51.444;-2.606;2023-04-24T11:39:39;10.30;99.90
39951;DHT22;25629;51.444;-2.606;2023-04-24T11:42:05;10.50;99.90
39951;DHT22;25629;51.444;-2.606;2023-04-24T11:44:35;10.60;99.90
39951;DHT22;25629;51.444;-2.606;2023-04-24T11:47:04;10.40;99.90
39951;DHT22;25629;51.444;-2.606;2023-04-24T11:49:30;10.50;99.90
39951;DHT22;25629;51.444;-2.606;2023-04-24T11:51:56;10.50;99.90
39951;DHT22;25629;51.444;-2.606;2023-04-24T11:54:21;10.50;99.90
39951;DHT22;25629;51.444;-2.606;2023-04-24T11:56:47;10.40;99.90
39951;DHT22;25629;51.444;-2.606;2023-04-24T11:59:13;10.40;99.90
39951;DHT22;25629;51.444;-2.606;2023-04-24T12:01:43;10.40;99.90
39951;DHT22;25629;51.444;-2.606;2023-04-24T12:04:08;10.30;99.90
39951;DHT22;25629;51.444;-2.606;2023-04-24T12:06:34;10.40;99.90
39951;DHT22;25629;51.444;-2.606;2023-04-24T12:09:00;10.60;99.90
39951;DHT22;25629;51.444;-2.606;2023-04-24T12:11:25;10.60;99.90
39951;DHT22;25629;51.444;-2.606;2023-04-24T12:13:51;10.60;98.30
39951;DHT22;25629;51.444;-2.606;2023-04-24T12:16:16;10.70;99.90
39951;DHT22;25629;51.444;-2.606;2023-04-24T12:18:43;10.70;99.30
39951;DHT22;25629;51.444;-2.606;2023-04-24T12:21:21;10.70;99.90
39951;DHT22;25629;51.444;-2.606;2023-04-24T12:23:48;10.60;97.90
39951;DHT22;25629;51.444;-2.606;2023-04-24T12:26:20;10.50;96.80
39951;DHT22;25629;51.444;-2.606;2023-04-24T12:28:47;10.60;98.90
39951;DHT22;25629;51.444;-2.606;2023-04-24T12:31:13;10.80;99.50
39951;DHT22;25629;51.444;-2.606;2023-04-24T12:33:39;11.00;96.00
39951;DHT22;25629;51.444;-2.606;2023-04-24T12:36:04;11.20;96.20
39951;DHT22;25629;51.444;-2.606;2023-04-24T12:38:31;11.40;95.90
39951;DHT22;25629;51.444;-2.606;2023-04-24T12:41:06;11.50;94.00
39951;DHT22;25629;51.444;-2.606;2023-04-24T12:43:32;11.60;96.40
39951;DHT22;25629;51.444;-2.606;2023-04-24T12:45:58;11.80;90.00
39951;DHT22;25629;51.444;-2.606;2023-04-24T12:48:27;12.30;92.10
39951;DHT22;25629;51.444;-2.606;2023-04-24T12:50:53;12.60;87.20
39951;DHT22;25629;51.444;-2.606;2023-04-24T12:53:19;13.10;70.30
39951;DHT22;25629;51.444;-2.606;2023-04-24T12:55:44;13.40;71.80
39951;DHT22;25629;51.444;-2.606;2023-04-24T12:58:12;13.50;51.10
39951;DHT22;25629;51.444;-2.606;2023-04-24T13:00:38;13.70;53.00
39951;DHT22;25629;51.444;-2.606;2023-04-24T13:03:04;13.60;17.10
39951;DHT22;25629;51.444;-2.606;2023-04-24T13:05:29;13.10;1.00
39951;DHT22;25629;51.444;-2.606;2023-04-24T13:07:55;13.00;1.00
39951;DHT22;25629;51.444;-2.606;2023-04-24T13:10:20;12.80;1.00
39951;DHT22;25629;51.444;-2.606;2023-04-24T13:12:46;12.80;1.00
39951;DHT22;25629;51.444;-2.606;2023-04-24T13:15:12;12.90;1.00
39951;DHT22;25629;51.444;-2.606;2023-04-24T13:17:37;12.80;1.00
39951;DHT22;25629;51.444;-2.606;2023-04-24T13:20:04;12.50;1.00
39951;DHT22;25629;51.444;-2.606;2023-04-24T13:22:30;12.30;1.00
39951;DHT22;25629;51.444;-2.606;2023-04-24T13:24:56;12.20;1.00
39951;DHT22;25629;51.444;-2.606;2023-04-24T13:27:22;12.30;1.00
39951;DHT22;25629;51.444;-2.606;2023-04-24T13:29:48;12.30;1.00
39951;DHT22;25629;51.444;-2.606;2023-04-24T13:32:13;12.60;5.10
39951;DHT22;25629;51.444;-2.606;2023-04-24T13:34:39;12.50;1.00
39951;DHT22;25629;51.444;-2.606;2023-04-24T13:37:04;12.60;1.00
39951;DHT22;25629;51.444;-2.606;2023-04-24T13:39:30;12.90;1.00
39951;DHT22;25629;51.444;-2.606;2023-04-24T13:41:56;13.00;1.00
39951;DHT22;25629;51.444;-2.606;2023-04-24T13:44:22;12.70;1.00
39951;DHT22;25629;51.444;-2.606;2023-04-24T13:46:49;12.40;1.00
39951;DHT22;25629;51.444;-2.606;2023-04-24T13:49:17;12.30;1.00
39951;DHT22;25629;51.444;-2.606;2023-04-24T13:51:43;12.30;1.00
39951;DHT22;25629;51.444;-2.606;2023-04-24T13:54:08;12.10;1.00
39951;DHT22;25629;51.444;-2.606;2023-04-24T13:56:34;11.90;1.00
39951;DHT22;25629;51.444;-2.606;2023-04-24T13:58:59;11.80;1.00
39951;DHT22;25629;51.444;-2.606;2023-04-24T14:01:25;11.80;1.00
39951;DHT22;25629;51.444;-2.606;2023-04-24T14:03:51;11.70;1.00
39951;DHT22;25629;51.444;-2.606;2023-04-24T14:06:17;11.50;1.20
39951;DHT22;25629;51.444;-2.606;2023-04-24T14:08:43;11.40;3.90
39951;DHT22;25629;51.444;-2.606;2023-04-24T14:11:09;11.30;11.20
39951;DHT22;25629;51.444;-2.606;2023-04-24T14:13:35;11.10;20.60
39951;DHT22;25629;51.444;-2.606;2023-04-24T14:16:01;10.90;30.20
39951;DHT22;25629;51.444;-2.606;2023-04-24T14:18:27;10.60;51.60
39951;DHT22;25629;51.444;-2.606;2023-04-24T14:20:52;10.60;84.90
39951;DHT22;25629;51.444;-2.606;2023-04-24T14:23:18;10.60;71.90
39951;DHT22;25629;51.444;-2.606;2023-04-24T14:25:43;10.60;56.60
39951;DHT22;25629;51.444;-2.606;2023-04-24T14:28:09;10.50;44.70
39951;DHT22;25629;51.444;-2.606;2023-04-24T14:30:35;10.50;60.80
39951;DHT22;25629;51.444;-2.606;2023-04-24T14:33:03;10.50;50.30
39951;DHT22;25629;51.444;-2.606;2023-04-24T14:35:29;10.50;61.70
39951;DHT22;25629;51.444;-2.606;2023-04-24T14:37:56;10.40;64.10
39951;DHT22;25629;51.444;-2.606;2023-04-24T14:40:22;10.30;81.50
39951;DHT22;25629;51.444;-2.606;2023-04-24T14:42:47;10.30;84.70
39951;DHT22;25629;51.444;-2.606;2023-04-24T14:45:13;10.30;89.00
39951;DHT22;25629;51.444;-2.606;2023-04-24T14:47:39;10.20;85.20
39951;DHT22;25629;51.444;-2.606;2023-04-24T14:50:05;10.10;87.20
39951;DHT22;25629;51.444;-2.606;2023-04-24T14:52:30;10.00;95.00
39951;DHT22;25629;51.444;-2.606;2023-04-24T14:54:56;9.90;95.70
39951;DHT22;25629;51.444;-2.606;2023-04-24T14:57:22;9.70;96.30
39951;DHT22;25629;51.444;-2.606;2023-04-24T14:59:48;9.60;96.40
39951;DHT22;25629;51.444;-2.606;2023-04-24T15:02:13;9.50;97.40
39951;DHT22;25629;51.444;-2.606;2023-04-24T15:04:39;9.40;93.70
39951;DHT22;25629;51.444;-2.606;2023-04-24T15:07:05;9.20;77.60
39951;DHT22;25629;51.444;-2.606;2023-04-24T15:09:30;9.10;83.00
39951;DHT22;25629;51.444;-2.606;2023-04-24T15:11:57;9.20;92.40
39951;DHT22;25629;51.444;-2.606;2023-04-24T15:14:23;9.10;90.60
39951;DHT22;25629;51.444;-2.606;2023-04-24T15:16:49;9.30;93.80
39951;DHT22;25629;51.444;-2.606;2023-04-24T15:19:15;9.30;86.20
39951;DHT22;25629;51.444;-2.606;2023-04-24T15:21:40;9.30;91.60
39951;DHT22;25629;51.444;-2.606;2023-04-24T15:24:07;9.40;90.40
39951;DHT22;25629;51.444;-2.606;2023-04-24T15:26:33;9.30;82.00
39951;DHT22;25629;51.444;-2.606;2023-04-24T15:28:59;9.10;60.00
39951;DHT22;25629;51.444;-2.606;2023-04-24T15:31:24;9.10;68.70